Time;durP1;ratioP1;P1;durP2;ratioP2;P2;SDS_P1;SDS_P2;PMS_P1;PMS_P2;Temp;Humidity;BMP_temperature;BMP_pressure;BME280_temperature;BME280_humidity;BME280_pressure;Samples;Min_cycle;Max_cycle;Signal;HPM_P1;HPM_P2
2022/09/26 00:02:22;;;;;;;5.53;2.25;;;10.70;99.90;;;;;;5092045;28;20048;-58
2022/09/26 00:04:47;;;;;;;7.60;2.10;;;10.60;99.90;;;;;;5093479;27;20048;-58
2022/09/26 00:07:13;;;;;;;8.50;2.55;;;10.90;99.90;;;;;;5093409;27;20065;-57
2022/09/26 00:09:39;;;;;;;8.65;3.10;;;10.80;99.90;;;;;;5090691;27;20459;-58
2022/09/26 00:12:06;;;;;;;7.57;2.58;;;11.20;99.90;;;;;;5093493;28;20053;-58
2022/09/26 00:14:32;;;;;;;6.95;2.28;;;11.30;99.90;;;;;;5093021;27;20043;-58
2022/09/26 00:16:58;;;;;;;9.10;2.40;;;11.00;99.90;;;;;;5092652;28;20047;-58
2022/09/26 00:19:24;;;;;;;10.43;3.42;;;11.50;99.90;;;;;;5092036;27;20488;-58
2022/09/26 00:21:49;;;;;;;4.53;1.98;;;11.30;99.90;;;;;;5093172;28;20039;-57
2022/09/26 00:24:15;;;;;;;9.23;2.38;;;11.40;99.90;;;;;;5093928;28;20044;-58
2022/09/26 00:26:41;;;;;;;5.28;2.20;;;13.00;99.90;;;;;;5091602;28;20043;-58
2022/09/26 00:29:10;;;;;;;6.50;2.33;;;10.70;99.90;;;;;;5092110;28;20046;-58
2022/09/26 00:31:39;;;;;;;12.85;2.60;;;12.40;99.90;;;;;;5092978;28;20138;-58
2022/09/26 00:34:06;;;;;;;8.15;2.03;;;11.00;99.90;;;;;;5092781;28;20124;-58
2022/09/26 00:36:32;;;;;;;9.60;2.08;;;10.90;99.90;;;;;;5093738;28;20043;-58
2022/09/26 00:38:59;;;;;;;10.30;2.50;;;10.90;99.90;;;;;;5093470;28;20067;-58
2022/09/26 00:41:25;;;;;;;9.27;2.00;;;10.90;99.90;;;;;;5092892;27;20139;-58
2022/09/26 00:43:56;;;;;;;8.73;2.28;;;10.90;99.90;;;;;;5093438;28;20180;-58
2022/09/26 00:46:27;;;;;;;7.38;1.90;;;11.10;99.90;;;;;;5093707;28;20043;-58
2022/09/26 00:49:33;;;;;;;7.40;2.33;;;11.00;99.90;;;;;;5095897;28;20119;-58
2022/09/26 00:52:08;;;;;;;6.65;2.15;;;11.10;99.90;;;;;;5096235;27;20090;-58
2022/09/26 00:54:36;;;;;;;8.00;2.28;;;11.10;99.90;;;;;;5098838;27;20636;-58
2022/09/26 00:57:12;;;;;;;13.52;2.40;;;11.30;99.90;;;;;;5098129;27;20528;-58
2022/09/26 00:59:42;;;;;;;8.50;2.20;;;11.00;99.90;;;;;;5095195;28;20198;-58
2022/09/26 01:02:08;;;;;;;5.70;2.00;;;11.00;99.90;;;;;;5097057;27;20047;-58
2022/09/26 01:04:38;;;;;;;7.68;2.28;;;11.00;99.90;;;;;;5097163;27;20035;-58
2022/09/26 01:07:09;;;;;;;8.75;2.25;;;11.40;99.90;;;;;;5096126;27;20075;-58
2022/09/26 01:09:36;;;;;;;6.57;2.17;;;12.10;99.90;;;;;;5095592;27;20130;-58
2022/09/26 01:12:04;;;;;;;8.40;1.98;;;11.50;99.90;;;;;;5096042;27;20725;-58
2022/09/26 01:14:32;;;;;;;10.52;2.40;;;11.00;99.90;;;;;;5094970;27;20044;-58
2022/09/26 01:16:58;;;;;;;6.78;2.00;;;11.00;99.90;;;;;;5096520;27;20509;-58
2022/09/26 01:19:29;;;;;;;6.40;2.40;;;13.20;99.90;;;;;;5095831;27;20074;-58
2022/09/26 01:22:01;;;;;;;8.77;2.60;;;12.80;99.90;;;;;;5096400;28;20071;-58
2022/09/26 01:24:51;;;;;;;6.15;1.98;;;11.20;99.90;;;;;;5096182;28;20039;-58
2022/09/26 01:27:58;;;;;;;7.25;2.28;;;11.10;99.90;;;;;;5095507;27;20047;-57
2022/09/26 01:30:27;;;;;;;4.95;1.90;;;11.00;99.90;;;;;;5058752;27;20105;-59
2022/09/26 01:33:25;;;;;;;9.23;2.28;;;11.10;99.90;;;;;;5096069;27;20137;-58
2022/09/26 01:36:15;;;;;;;7.03;1.80;;;12.90;99.90;;;;;;5127423;27;20100;-57
2022/09/26 01:38:55;;;;;;;10.88;2.78;;;11.00;99.90;;;;;;5095401;27;20046;-58
2022/09/26 01:41:42;;;;;;;11.48;2.40;;;12.40;99.90;;;;;;5095344;27;20461;-58
2022/09/26 01:44:17;;;;;;;8.07;2.13;;;11.20;99.90;;;;;;5095388;27;20074;-58
2022/09/26 01:46:55;;;;;;;14.07;2.63;;;11.00;99.90;;;;;;5096424;28;20051;-58
2022/09/26 01:49:43;;;;;;;4.40;1.58;;;11.10;99.90;;;;;;5095428;27;20534;-58
2022/09/26 01:52:18;;;;;;;6.32;1.60;;;12.70;99.90;;;;;;5095469;27;20111;-58
2022/09/26 01:54:47;;;;;;;6.53;1.70;;;11.20;99.90;;;;;;5097592;27;20035;-58
2022/09/26 01:57:18;;;;;;;11.02;2.17;;;11.00;99.90;;;;;;5095139;27;20100;-58
2022/09/26 01:59:53;;;;;;;6.22;1.70;;;11.00;99.90;;;;;;5094098;27;20051;-59
2022/09/26 02:02:25;;;;;;;7.25;1.73;;;11.10;99.90;;;;;;5096093;27;20055;-58
2022/09/26 02:05:05;;;;;;;8.30;1.63;;;11.20;99.90;;;;;;5093933;28;20047;-58
2022/09/26 02:07:38;;;;;;;10.02;2.10;;;11.20;99.90;;;;;;5094425;27;20067;-58
2022/09/26 02:10:14;;;;;;;5.53;1.70;;;11.00;99.90;;;;;;5095149;27;20512;-59
2022/09/26 02:12:44;;;;;;;8.10;1.88;;;10.90;99.90;;;;;;5093674;27;20032;-60
2022/09/26 02:15:15;;;;;;;7.22;2.30;;;10.90;99.90;;;;;;5093570;27;20042;-61
2022/09/26 02:17:45;;;;;;;5.40;1.75;;;9.90;99.90;;;;;;5094416;27;20130;-61
2022/09/26 02:20:18;;;;;;;10.00;2.03;;;13.10;99.90;;;;;;5093418;27;20040;-62
2022/09/26 02:22:44;;;;;;;7.43;2.40;;;10.80;99.90;;;;;;5094673;27;20698;-61
2022/09/26 02:25:10;;;;;;;6.18;2.20;;;10.60;99.90;;;;;;5095106;27;20392;-60
2022/09/26 02:27:37;;;;;;;7.68;2.70;;;11.20;99.90;;;;;;5094370;27;20051;-60
2022/09/26 02:30:04;;;;;;;5.32;2.30;;;12.30;99.90;;;;;;5092682;27;20120;-60
2022/09/26 02:32:32;;;;;;;13.10;2.80;;;10.60;99.90;;;;;;5094753;27;20126;-60
2022/09/26 02:34:59;;;;;;;9.48;2.65;;;10.90;99.90;;;;;;5093706;27;20073;-60
2022/09/26 02:37:27;;;;;;;9.98;3.08;;;10.80;99.90;;;;;;5094712;27;20131;-60
2022/09/26 02:39:54;;;;;;;11.77;3.40;;;10.60;99.90;;;;;;5093096;27;20070;-60
2022/09/26 02:42:32;;;;;;;5.78;2.92;;;10.50;99.90;;;;;;5093545;27;20205;-59
2022/09/26 02:45:35;;;;;;;10.45;3.05;;;10.50;99.90;;;;;;5093757;27;20043;-60
2022/09/26 02:48:12;;;;;;;9.52;3.40;;;10.60;99.90;;;;;;5093094;27;20037;-60
2022/09/26 02:50:53;;;;;;;8.75;3.17;;;10.50;99.90;;;;;;5093484;28;20859;-61
2022/09/26 02:53:38;;;;;;;9.95;2.72;;;10.50;99.90;;;;;;5094075;28;20048;-61
2022/09/26 02:56:22;;;;;;;8.57;2.65;;;10.80;99.90;;;;;;5095458;27;20043;-61
2022/09/26 02:58:58;;;;;;;13.98;4.13;;;11.90;99.90;;;;;;5093888;27;20079;-61
2022/09/26 03:01:56;;;;;;;7.50;2.80;;;10.60;99.90;;;;;;5094885;27;20575;-62
2022/09/26 03:04:52;;;;;;;10.00;3.13;;;10.60;99.90;;;;;;5079071;27;20090;-60
2022/09/26 03:07:56;;;;;;;11.20;3.28;;;10.70;99.90;;;;;;5093816;27;20039;-59
2022/09/26 03:10:26;;;;;;;8.75;3.15;;;10.60;99.90;;;;;;5070636;27;20047;-59
2022/09/26 03:12:53;;;;;;;7.35;3.30;;;10.70;99.90;;;;;;5094691;27;20113;-59
2022/09/26 03:15:19;;;;;;;12.43;4.05;;;12.20;99.90;;;;;;5094889;27;20063;-60
2022/09/26 03:17:50;;;;;;;7.88;3.60;;;10.60;99.90;;;;;;5093806;27;20036;-60
2022/09/26 03:20:20;;;;;;;9.48;4.53;;;10.60;99.90;;;;;;5093458;28;20054;-60
2022/09/26 03:22:46;;;;;;;12.85;4.05;;;12.30;99.90;;;;;;5093592;27;20075;-61
2022/09/26 03:25:22;;;;;;;8.63;4.22;;;10.70;99.90;;;;;;5095127;27;20048;-61
2022/09/26 03:27:48;;;;;;;6.65;3.38;;;10.70;99.90;;;;;;5092908;27;20043;-61
2022/09/26 03:30:16;;;;;;;9.77;4.78;;;10.50;99.90;;;;;;5093118;28;20052;-61
2022/09/26 03:32:41;;;;;;;10.15;4.40;;;10.80;99.90;;;;;;5093158;27;20073;-60
2022/09/26 03:35:08;;;;;;;9.77;4.32;;;11.50;99.90;;;;;;5093256;27;20071;-61
2022/09/26 03:37:36;;;;;;;9.15;4.47;;;10.70;99.90;;;;;;5092985;27;20032;-62
2022/09/26 03:40:10;;;;;;;13.30;4.30;;;11.40;99.90;;;;;;5092665;28;20492;-61
2022/09/26 03:42:36;;;;;;;11.02;4.90;;;10.60;99.90;;;;;;5092805;27;20039;-61
2022/09/26 03:45:07;;;;;;;11.40;4.05;;;9.40;99.90;;;;;;5092275;27;20039;-62
2022/09/26 03:47:34;;;;;;;13.27;4.55;;;10.60;99.90;;;;;;5092593;27;20122;-61
2022/09/26 03:50:00;;;;;;;11.75;4.60;;;12.80;99.90;;;;;;5091097;27;20567;-61
2022/09/26 03:52:26;;;;;;;9.18;4.50;;;10.70;99.90;;;;;;5092815;27;20046;-60
2022/09/26 03:54:52;;;;;;;8.25;4.35;;;10.60;99.90;;;;;;5094433;27;20135;-60
2022/09/26 03:57:19;;;;;;;10.65;5.00;;;11.90;99.90;;;;;;5093465;27;20036;-60
2022/09/26 03:59:45;;;;;;;9.00;4.55;;;10.90;99.90;;;;;;5091080;28;20055;-60
2022/09/26 04:02:11;;;;;;;10.07;5.50;;;10.70;99.90;;;;;;5091527;27;20540;-60
2022/09/26 04:04:37;;;;;;;11.82;4.78;;;10.60;99.90;;;;;;5093358;27;20036;-58
2022/09/26 04:07:03;;;;;;;8.40;4.90;;;10.60;99.90;;;;;;5094417;27;20330;-59
2022/09/26 04:09:29;;;;;;;11.70;4.30;;;10.70;99.90;;;;;;5093526;27;20128;-60
2022/09/26 04:11:55;;;;;;;8.25;4.75;;;10.70;99.90;;;;;;5092382;28;20360;-59
2022/09/26 04:14:21;;;;;;;8.55;4.38;;;10.70;99.90;;;;;;5091851;27;20483;-59
2022/09/26 04:16:47;;;;;;;10.18;4.78;;;10.50;99.90;;;;;;5094118;27;20547;-59
2022/09/26 04:19:13;;;;;;;8.25;4.65;;;12.90;99.90;;;;;;5092997;27;20532;-59
2022/09/26 04:21:40;;;;;;;8.93;4.55;;;10.80;99.90;;;;;;5093572;27;20804;-59
2022/09/26 04:24:11;;;;;;;13.00;5.50;;;10.50;99.90;;;;;;5091455;28;20713;-59
2022/09/26 04:26:42;;;;;;;12.38;4.97;;;10.70;99.90;;;;;;5094331;28;20927;-59
2022/09/26 04:29:09;;;;;;;14.15;5.50;;;10.60;99.90;;;;;;5093853;28;20399;-60
2022/09/26 04:31:35;;;;;;;8.65;5.18;;;10.70;99.90;;;;;;5092564;28;20487;-60
2022/09/26 04:34:03;;;;;;;13.43;4.75;;;12.90;99.90;;;;;;5093633;28;20050;-59
2022/09/26 04:36:30;;;;;;;12.95;5.00;;;10.80;99.90;;;;;;5093268;27;20194;-59
2022/09/26 04:38:59;;;;;;;10.15;4.60;;;10.70;99.90;;;;;;5091077;28;20038;-59
2022/09/26 04:41:26;;;;;;;10.13;4.85;;;10.70;99.90;;;;;;5092563;28;20047;-59
2022/09/26 04:43:56;;;;;;;12.32;4.57;;;10.80;99.90;;;;;;5092266;28;20321;-59
2022/09/26 04:46:24;;;;;;;11.95;5.18;;;10.60;99.90;;;;;;5092245;28;21004;-59
2022/09/26 04:48:51;;;;;;;9.02;4.60;;;10.70;99.90;;;;;;5091765;28;20074;-59
2022/09/26 04:51:18;;;;;;;7.97;5.15;;;12.80;99.90;;;;;;5086818;28;20047;-59
2022/09/26 04:53:45;;;;;;;14.93;5.75;;;10.60;99.90;;;;;;5091781;28;20039;-59
2022/09/26 04:56:12;;;;;;;10.18;4.95;;;10.70;99.90;;;;;;5093420;28;20071;-59
2022/09/26 04:58:40;;;;;;;13.20;5.78;;;10.50;99.90;;;;;;5091297;28;22205;-59
2022/09/26 05:01:15;;;;;;;9.38;5.50;;;10.60;99.90;;;;;;5092636;28;20036;-59
2022/09/26 05:03:40;;;;;;;10.20;5.43;;;10.70;99.90;;;;;;5090983;28;20440;-59
2022/09/26 05:06:07;;;;;;;13.48;6.10;;;10.60;99.90;;;;;;5091882;27;20180;-59
2022/09/26 05:08:38;;;;;;;12.15;5.45;;;10.60;99.90;;;;;;5091134;28;20050;-60
2022/09/26 05:11:04;;;;;;;10.55;5.80;;;10.70;99.90;;;;;;5092917;28;20040;-59
2022/09/26 05:13:30;;;;;;;8.50;5.82;;;10.60;99.90;;;;;;5090743;28;20039;-60
2022/09/26 05:16:01;;;;;;;10.43;6.22;;;12.60;99.90;;;;;;5090785;28;20039;-59
2022/09/26 05:18:27;;;;;;;11.88;5.95;;;10.80;99.90;;;;;;5090815;28;20038;-59
2022/09/26 05:20:53;;;;;;;13.50;6.10;;;10.60;99.90;;;;;;5091956;28;20039;-59
2022/09/26 05:26:20;;;;;;;12.93;6.78;;;10.60;99.90;;;;;;5093196;28;20064;-59
2022/09/26 05:28:51;;;;;;;15.65;7.30;;;10.40;99.90;;;;;;5091093;28;20731;-58
2022/09/26 05:31:17;;;;;;;10.07;6.05;;;10.70;99.90;;;;;;5092236;28;20624;-59
2022/09/26 05:33:44;;;;;;;14.93;6.88;;;10.40;99.90;;;;;;5093330;27;20078;-60
2022/09/26 05:36:11;;;;;;;12.90;6.43;;;10.50;99.90;;;;;;5093772;27;20043;-59
2022/09/26 05:38:36;;;;;;;12.50;6.90;;;10.30;99.90;;;;;;5095373;28;20048;-59
2022/09/26 05:41:02;;;;;;;10.82;6.60;;;10.40;99.90;;;;;;5095904;28;20047;-60
2022/09/26 05:43:30;;;;;;;10.52;6.28;;;10.50;99.90;;;;;;5095924;27;20248;-59
2022/09/26 05:46:05;;;;;;;11.38;6.65;;;11.30;99.90;;;;;;5095566;28;20036;-60
2022/09/26 05:48:33;;;;;;;13.40;6.15;;;10.60;99.90;;;;;;5096482;27;20050;-58
2022/09/26 05:51:11;;;;;;;12.80;6.60;;;10.40;99.90;;;;;;5095784;28;20165;-59
2022/09/26 05:53:37;;;;;;;13.93;6.82;;;10.30;99.90;;;;;;5096167;28;20043;-58
2022/09/26 05:56:05;;;;;;;10.45;5.68;;;10.40;99.90;;;;;;5097091;27;20477;-58
2022/09/26 05:58:33;;;;;;;10.07;6.28;;;10.30;99.90;;;;;;5096005;27;20048;-59
2022/09/26 06:01:05;;;;;;;13.60;5.88;;;10.40;99.90;;;;;;5095580;27;20055;-59
2022/09/26 06:03:35;;;;;;;11.35;5.65;;;10.40;99.90;;;;;;5094913;27;20039;-59
2022/09/26 06:06:02;;;;;;;9.85;5.70;;;12.30;99.90;;;;;;5095094;28;20082;-59
2022/09/26 06:08:28;;;;;;;11.55;5.40;;;11.90;99.90;;;;;;5093512;27;20035;-58
2022/09/26 06:11:08;;;;;;;14.27;5.95;;;10.90;99.90;;;;;;5094827;27;20071;-59
2022/09/26 06:13:35;;;;;;;10.10;5.90;;;10.40;99.90;;;;;;5093886;27;20773;-59
2022/09/26 06:16:06;;;;;;;10.55;5.55;;;10.30;99.90;;;;;;5093966;27;20050;-60
2022/09/26 06:18:35;;;;;;;11.98;5.85;;;10.30;99.90;;;;;;5093055;27;20385;-60
2022/09/26 06:21:05;;;;;;;12.25;5.40;;;10.50;99.90;;;;;;5094353;27;20027;-61
2022/09/26 06:23:33;;;;;;;9.35;5.60;;;10.50;99.90;;;;;;5093741;27;20036;-61
2022/09/26 06:25:59;;;;;;;10.60;5.00;;;11.60;99.90;;;;;;5094718;28;20040;-60
2022/09/26 06:28:28;;;;;;;11.13;6.35;;;11.70;99.90;;;;;;5095133;28;20031;-61
2022/09/26 06:30:55;;;;;;;9.45;5.30;;;11.20;99.90;;;;;;5094435;28;20046;-61
2022/09/26 06:33:21;;;;;;;13.15;5.35;;;10.40;99.90;;;;;;5093758;27;20110;-61
2022/09/26 06:35:57;;;;;;;9.63;5.10;;;10.30;99.90;;;;;;5093465;28;20054;-60
2022/09/26 06:38:23;;;;;;;10.77;5.60;;;11.00;99.90;;;;;;5093952;27;20039;-61
2022/09/26 06:40:51;;;;;;;9.15;4.53;;;10.20;99.90;;;;;;5093531;27;20054;-60
2022/09/26 06:43:18;;;;;;;14.80;5.57;;;10.20;99.90;;;;;;5092939;28;20044;-60
2022/09/26 06:45:44;;;;;;;11.23;5.80;;;11.10;99.90;;;;;;5094427;27;20127;-60
2022/09/26 06:48:11;;;;;;;8.77;5.15;;;11.10;99.90;;;;;;5093153;27;20035;-60
2022/09/26 06:50:37;;;;;;;9.07;5.10;;;10.20;99.90;;;;;;5093605;27;20067;-60
2022/09/26 06:53:03;;;;;;;7.53;5.50;;;10.20;99.90;;;;;;5093995;27;20472;-62
2022/09/26 06:55:29;;;;;;;10.18;5.18;;;11.40;99.90;;;;;;5093482;27;20044;-61
2022/09/26 06:57:54;;;;;;;15.90;5.30;;;10.20;99.90;;;;;;5096369;27;20039;-61
2022/09/26 07:00:20;;;;;;;8.35;5.07;;;10.40;99.90;;;;;;5093892;27;20120;-61
2022/09/26 07:02:53;;;;;;;14.50;5.30;;;11.90;99.90;;;;;;5094563;27;20044;-61
2022/09/26 07:05:20;;;;;;;14.15;5.57;;;10.30;99.90;;;;;;5090297;27;20043;-62
2022/09/26 07:07:47;;;;;;;17.20;5.20;;;11.60;99.90;;;;;;5094840;27;20051;-61
2022/09/26 07:10:14;;;;;;;13.10;5.25;;;10.20;99.90;;;;;;5094743;27;20202;-61
2022/09/26 07:12:43;;;;;;;8.90;4.68;;;10.10;99.90;;;;;;5093484;27;20115;-62
2022/09/26 07:15:16;;;;;;;11.98;4.78;;;10.90;99.90;;;;;;5093725;27;20046;-63
2022/09/26 07:17:43;;;;;;;8.85;4.80;;;10.40;99.90;;;;;;5094037;27;20046;-62
2022/09/26 07:20:10;;;;;;;12.60;4.75;;;10.70;99.90;;;;;;5092486;27;20064;-62
2022/09/26 07:22:36;;;;;;;10.68;4.97;;;10.50;99.90;;;;;;5093971;27;20067;-62
2022/09/26 07:25:02;;;;;;;11.23;4.35;;;10.60;99.90;;;;;;5093250;27;20298;-63
2022/09/26 07:27:28;;;;;;;5.93;3.75;;;10.30;99.90;;;;;;5093641;28;20110;-61
2022/09/26 07:29:55;;;;;;;9.02;4.25;;;11.60;99.90;;;;;;5093903;27;20046;-61
2022/09/26 07:32:21;;;;;;;8.85;4.10;;;11.10;99.90;;;;;;5092616;27;20046;-62
2022/09/26 07:34:47;;;;;;;9.98;4.28;;;10.20;99.90;;;;;;5092832;28;20080;-61
2022/09/26 07:37:14;;;;;;;8.18;5.47;;;10.40;99.90;;;;;;5093078;27;20046;-62
2022/09/26 07:39:39;;;;;;;10.00;4.60;;;10.30;99.90;;;;;;5093959;27;20130;-61
2022/09/26 07:42:06;;;;;;;8.40;4.50;;;12.30;99.90;;;;;;5091280;27;20483;-61
2022/09/26 07:44:31;;;;;;;10.35;4.13;;;10.40;99.90;;;;;;5092351;27;20105;-61
2022/09/26 07:52:28;;;;;;;8.20;3.50;;;11.10;99.90;;;;;;5091757;27;20045;-61
2022/09/26 07:54:53;;;;;;;8.45;3.80;;;10.50;99.90;;;;;;5092293;28;20039;-62
2022/09/26 07:57:19;;;;;;;9.20;3.65;;;10.80;99.90;;;;;;5092944;28;20385;-61
2022/09/26 07:59:45;;;;;;;10.60;3.83;;;10.70;99.90;;;;;;5092722;28;20573;-62
2022/09/26 08:02:23;;;;;;;8.00;3.47;;;8.70;99.90;;;;;;5091394;28;20105;-61
2022/09/26 08:04:49;;;;;;;7.13;3.50;;;12.30;99.90;;;;;;5092639;27;20047;-61
2022/09/26 08:07:15;;;;;;;11.65;3.78;;;10.70;99.90;;;;;;5093600;28;20040;-62
2022/09/26 08:09:41;;;;;;;6.70;3.50;;;10.80;99.90;;;;;;5093307;28;20399;-62
2022/09/26 08:12:07;;;;;;;8.07;3.65;;;11.10;99.90;;;;;;5092496;27;20070;-61
2022/09/26 08:14:33;;;;;;;8.63;4.00;;;11.20;99.90;;;;;;5092269;28;20093;-61
2022/09/26 08:16:58;;;;;;;8.32;3.47;;;10.80;99.90;;;;;;5092948;28;20050;-61
2022/09/26 08:19:24;;;;;;;6.88;3.35;;;10.80;99.90;;;;;;5092773;28;20556;-61
2022/09/26 08:21:50;;;;;;;9.63;3.42;;;10.90;99.90;;;;;;5092048;28;20031;-60
2022/09/26 08:24:16;;;;;;;9.57;3.85;;;11.50;99.90;;;;;;5092170;28;20079;-62
2022/09/26 08:26:41;;;;;;;8.27;3.63;;;10.80;99.90;;;;;;5093571;27;20571;-61
2022/09/26 08:29:11;;;;;;;6.95;3.50;;;10.80;99.90;;;;;;5092282;28;20312;-61
2022/09/26 08:31:40;;;;;;;9.25;3.90;;;10.80;99.90;;;;;;5092269;28;20035;-61
2022/09/26 08:34:07;;;;;;;7.07;2.78;;;10.90;99.90;;;;;;5090993;28;20743;-61
2022/09/26 08:36:35;;;;;;;10.63;3.65;;;11.00;99.90;;;;;;5091183;28;20514;-61
2022/09/26 08:39:02;;;;;;;8.55;3.25;;;10.90;99.90;;;;;;5091879;28;20051;-61
2022/09/26 08:41:48;;;;;;;8.20;3.47;;;11.00;99.90;;;;;;5091515;27;20052;-61
2022/09/26 08:44:25;;;;;;;7.40;3.28;;;11.10;99.90;;;;;;5089847;28;20702;-61
2022/09/26 08:47:04;;;;;;;8.73;3.70;;;11.00;99.90;;;;;;5090625;28;20493;-61
2022/09/26 08:49:55;;;;;;;9.18;3.15;;;11.10;99.90;;;;;;5092543;28;20048;-62
2022/09/26 08:52:39;;;;;;;8.40;3.38;;;11.30;99.90;;;;;;5092892;28;20043;-61
2022/09/26 08:55:18;;;;;;;5.65;2.90;;;11.20;99.90;;;;;;5091240;28;20097;-62
2022/09/26 08:57:49;;;;;;;6.30;3.03;;;11.30;99.90;;;;;;5092880;28;20039;-62
2022/09/26 09:00:24;;;;;;;8.43;3.05;;;11.40;99.90;;;;;;5091547;28;20051;-62
2022/09/26 09:03:22;;;;;;;6.38;3.05;;;11.40;99.90;;;;;;5091124;28;20656;-63
2022/09/26 09:05:53;;;;;;;9.30;3.20;;;11.40;99.90;;;;;;5090621;28;20118;-61
2022/09/26 09:08:23;;;;;;;5.82;2.80;;;11.40;99.90;;;;;;5091028;28;20067;-62
2022/09/26 09:11:26;;;;;;;6.63;2.97;;;11.70;99.90;;;;;;5095267;27;20039;-62
2022/09/26 09:14:20;;;;;;;9.93;3.47;;;11.50;99.90;;;;;;5095457;27;20071;-62
2022/09/26 09:17:24;;;;;;;9.40;2.78;;;11.40;98.10;;;;;;5095176;27;20699;-62
2022/09/26 09:20:13;;;;;;;7.13;2.83;;;11.70;99.90;;;;;;5079023;27;20075;-61
2022/09/26 09:23:16;;;;;;;11.93;3.50;;;11.40;99.90;;;;;;5095142;28;20640;-61
2022/09/26 09:26:23;;;;;;;5.25;2.90;;;11.70;99.90;;;;;;5095602;27;20100;-62
2022/09/26 09:28:52;;;;;;;8.02;2.92;;;11.70;99.10;;;;;;5091083;27;20055;-62
2022/09/26 09:31:19;;;;;;;7.70;3.20;;;12.00;99.90;;;;;;5096057;27;20070;-62
2022/09/26 09:33:51;;;;;;;10.07;3.42;;;13.40;99.90;;;;;;5095310;27;20407;-62
2022/09/26 09:36:31;;;;;;;6.43;3.10;;;11.60;98.80;;;;;;5093027;27;20082;-61
2022/09/26 09:39:04;;;;;;;10.35;3.45;;;11.60;99.90;;;;;;5096652;27;20082;-62
2022/09/26 09:41:54;;;;;;;8.90;2.90;;;12.70;99.90;;;;;;5095687;27;20492;-61
2022/09/26 09:44:43;;;;;;;6.50;2.78;;;12.20;99.90;;;;;;5095076;27;20131;-61
2022/09/26 09:47:17;;;;;;;8.40;3.97;;;11.60;99.90;;;;;;5094690;28;20071;-61
2022/09/26 09:49:45;;;;;;;11.48;4.60;;;11.30;99.90;;;;;;5095940;27;20992;-61
2022/09/26 09:52:33;;;;;;;8.85;4.47;;;11.60;99.90;;;;;;5095188;27;20043;-61
2022/09/26 09:55:29;;;;;;;9.85;4.53;;;11.40;99.90;;;;;;5095938;27;20054;-61
2022/09/26 09:58:28;;;;;;;11.32;4.30;;;11.30;99.90;;;;;;5095579;27;20164;-61
2022/09/26 10:01:19;;;;;;;14.60;5.05;;;11.20;99.90;;;;;;5093968;27;20047;-61
2022/09/26 10:03:54;;;;;;;12.13;5.38;;;12.80;99.90;;;;;;5093989;27;20396;-60
2022/09/26 10:06:21;;;;;;;10.10;5.18;;;11.20;99.90;;;;;;5095346;27;20047;-60
2022/09/26 10:08:49;;;;;;;9.98;4.38;;;11.30;99.90;;;;;;5094005;27;20039;-60
2022/09/26 10:11:43;;;;;;;11.73;6.22;;;11.40;99.90;;;;;;5093987;27;20511;-60
2022/09/26 10:14:27;;;;;;;8.80;5.53;;;11.30;99.90;;;;;;5094566;28;20044;-61
2022/09/26 10:17:08;;;;;;;9.60;5.28;;;11.20;99.90;;;;;;5093791;27;20073;-61
2022/09/26 10:19:41;;;;;;;8.07;5.03;;;11.20;99.90;;;;;;5094582;27;20526;-61
2022/09/26 10:22:36;;;;;;;10.80;5.90;;;12.70;99.90;;;;;;5095076;28;20082;-61
2022/09/26 10:25:17;;;;;;;10.05;5.40;;;11.30;99.90;;;;;;5088690;28;20117;-61
2022/09/26 10:27:54;;;;;;;11.13;5.60;;;11.10;99.90;;;;;;5096261;27;20040;-61
2022/09/26 10:30:27;;;;;;;12.68;5.72;;;11.50;99.90;;;;;;5094519;27;20123;-60
2022/09/26 10:32:58;;;;;;;9.68;5.63;;;11.20;99.90;;;;;;5094183;27;20035;-60
2022/09/26 10:35:39;;;;;;;12.07;6.20;;;11.70;99.90;;;;;;5094282;27;20455;-60
2022/09/26 10:38:16;;;;;;;12.68;6.55;;;11.40;99.90;;;;;;5093729;28;20039;-60
2022/09/26 10:40:53;;;;;;;8.50;6.05;;;11.80;99.90;;;;;;5095350;27;20082;-60
2022/09/26 10:43:34;;;;;;;10.25;6.10;;;11.20;99.90;;;;;;5093897;27;20181;-59
2022/09/26 10:46:02;;;;;;;13.07;6.38;;;11.70;99.90;;;;;;5094918;27;20581;-58
2022/09/26 10:48:48;;;;;;;10.43;6.07;;;12.10;99.90;;;;;;5094661;27;20035;-59
2022/09/26 10:51:23;;;;;;;12.20;6.20;;;11.10;99.90;;;;;;5126184;27;20052;-58
2022/09/26 10:53:53;;;;;;;8.80;5.65;;;11.30;99.90;;;;;;5093342;27;20448;-58
2022/09/26 10:56:25;;;;;;;11.70;6.13;;;11.30;99.90;;;;;;5091327;27;20039;-59
2022/09/26 10:58:56;;;;;;;9.60;6.23;;;11.20;99.90;;;;;;5093968;27;20334;-59
2022/09/26 11:01:26;;;;;;;11.60;6.83;;;11.20;99.90;;;;;;5093931;27;20415;-60
2022/09/26 11:03:54;;;;;;;9.27;5.97;;;11.20;99.90;;;;;;5093254;27;20036;-59
2022/09/26 11:06:39;;;;;;;9.65;6.38;;;11.10;99.90;;;;;;5093172;28;20047;-60
2022/09/26 11:09:06;;;;;;;12.68;6.13;;;11.20;99.90;;;;;;5092893;27;20526;-61
2022/09/26 11:11:36;;;;;;;11.73;7.13;;;11.10;99.90;;;;;;5093671;28;20040;-61
2022/09/26 11:14:06;;;;;;;12.68;6.30;;;11.00;99.90;;;;;;5095407;27;20093;-61
2022/09/26 11:16:52;;;;;;;10.98;7.50;;;11.10;99.90;;;;;;5092672;27;20036;-61
2022/09/26 11:19:34;;;;;;;12.43;6.55;;;11.20;99.90;;;;;;5092850;27;20662;-60
2022/09/26 11:22:08;;;;;;;9.73;6.60;;;11.30;99.90;;;;;;5094278;27;20039;-61
2022/09/26 11:25:10;;;;;;;11.05;6.00;;;11.50;99.90;;;;;;5092616;27;20075;-61
2022/09/26 11:27:45;;;;;;;7.78;5.57;;;13.10;99.90;;;;;;5091710;27;20082;-61
2022/09/26 11:30:19;;;;;;;11.77;6.50;;;11.40;99.90;;;;;;5093124;28;20047;-60
2022/09/26 11:32:56;;;;;;;11.98;6.95;;;13.30;99.90;;;;;;5092196;27;20097;-61
2022/09/26 11:35:32;;;;;;;9.05;6.05;;;11.40;99.90;;;;;;5092314;27;20541;-61
2022/09/26 11:38:22;;;;;;;8.05;5.70;;;12.60;99.90;;;;;;5093228;27;20040;-61
2022/09/26 11:41:06;;;;;;;8.63;5.20;;;11.50;99.90;;;;;;5093700;28;20046;-61
2022/09/26 11:43:43;;;;;;;9.60;5.82;;;11.50;99.90;;;;;;5092265;28;20194;-61
2022/09/26 11:46:19;;;;;;;9.55;5.35;;;11.50;99.90;;;;;;5093897;27;20232;-61
2022/09/26 11:49:23;;;;;;;7.85;4.97;;;11.80;99.90;;;;;;5092459;28;20813;-61
2022/09/26 11:52:28;;;;;;;7.63;5.53;;;11.50;99.90;;;;;;5093630;28;20043;-61
2022/09/26 11:55:16;;;;;;;9.45;6.20;;;11.60;99.90;;;;;;5093666;28;20159;-61
2022/09/26 11:58:05;;;;;;;11.90;6.32;;;11.50;99.90;;;;;;5093281;27;20803;-61
2022/09/26 12:00:54;;;;;;;10.15;6.18;;;12.10;99.90;;;;;;5093101;27;20455;-61
2022/09/26 12:03:34;;;;;;;7.70;6.05;;;11.60;99.90;;;;;;5092269;27;20420;-61
2022/09/26 12:06:00;;;;;;;11.07;6.60;;;11.60;99.90;;;;;;5093010;27;20055;-61
2022/09/26 12:08:46;;;;;;;7.40;5.38;;;11.60;99.90;;;;;;5092644;27;20043;-61
2022/09/26 12:11:27;;;;;;;10.20;6.05;;;11.70;99.90;;;;;;5070244;28;20054;-61
2022/09/26 12:14:17;;;;;;;9.02;5.75;;;11.70;99.90;;;;;;5091991;28;20886;-61
2022/09/26 12:16:54;;;;;;;7.38;6.00;;;11.80;99.90;;;;;;5091710;28;20039;-62
2022/09/26 12:19:58;;;;;;;9.93;6.40;;;11.70;99.90;;;;;;5090529;28;20043;-61
2022/09/26 12:22:33;;;;;;;8.40;5.70;;;11.60;99.90;;;;;;5067271;27;20054;-61
2022/09/26 12:25:09;;;;;;;6.85;4.82;;;11.60;99.90;;;;;;5090184;27;20039;-61
2022/09/26 12:27:42;;;;;;;9.52;6.38;;;11.80;99.90;;;;;;5089705;28;20039;-62
2022/09/26 12:30:12;;;;;;;8.80;5.63;;;11.70;99.90;;;;;;5092326;27;20128;-61
2022/09/26 12:32:47;;;;;;;9.60;5.78;;;12.60;99.90;;;;;;5092130;28;20225;-61
2022/09/26 12:35:19;;;;;;;9.38;6.20;;;11.60;99.90;;;;;;5093423;28;20069;-61
2022/09/26 12:38:02;;;;;;;8.52;5.88;;;11.70;99.90;;;;;;5092187;28;20038;-61
2022/09/26 12:40:47;;;;;;;8.23;5.82;;;11.60;99.90;;;;;;5091121;28;20041;-60
2022/09/26 12:43:18;;;;;;;9.00;6.05;;;11.80;99.90;;;;;;5091106;28;20039;-60
2022/09/26 12:46:00;;;;;;;8.35;6.28;;;11.90;99.90;;;;;;5090811;28;20050;-61
2022/09/26 12:48:43;;;;;;;8.48;6.22;;;12.10;99.90;;;;;;5091558;28;20035;-60
2022/09/26 12:51:27;;;;;;;6.45;4.70;;;12.20;99.90;;;;;;5091980;28;20518;-61
2022/09/26 12:54:16;;;;;;;8.55;4.47;;;12.40;99.90;;;;;;5091481;28;20043;-61
2022/09/26 12:57:12;;;;;;;7.88;4.25;;;12.30;99.90;;;;;;5091408;28;20104;-61
2022/09/26 12:59:57;;;;;;;6.18;3.95;;;12.40;99.90;;;;;;5092943;28;20362;-61
2022/09/26 13:02:34;;;;;;;6.57;4.25;;;12.50;99.90;;;;;;5092376;28;20453;-60
2022/09/26 13:05:09;;;;;;;6.10;3.55;;;12.50;99.90;;;;;;5091871;28;20039;-61
2022/09/26 13:07:52;;;;;;;7.72;3.80;;;12.50;99.90;;;;;;5092019;28;20047;-61
2022/09/26 13:10:40;;;;;;;6.25;3.90;;;12.50;99.90;;;;;;5091698;28;20100;-61
2022/09/26 13:13:24;;;;;;;6.05;3.83;;;12.50;99.90;;;;;;5091733;28;20051;-61
2022/09/26 13:16:14;;;;;;;5.93;3.67;;;12.60;99.90;;;;;;5092177;28;20047;-61
2022/09/26 13:18:46;;;;;;;6.53;3.63;;;12.20;99.90;;;;;;5091433;28;20159;-62
2022/09/26 13:21:53;;;;;;;5.60;3.63;;;12.60;99.90;;;;;;5090211;28;20083;-61
2022/09/26 13:24:27;;;;;;;5.78;3.42;;;13.60;99.90;;;;;;5008907;28;20767;-61
2022/09/26 13:27:03;;;;;;;7.72;4.05;;;12.60;99.90;;;;;;5083570;28;20059;-61